Terminal Aerodrome Forecast
Issued by NWS Pocatello, ID

Home | Current Version | Previous Version | Text Only | Print | Product List | Glossary On
Versions: 1 2 3 4 5 6 7 8 9 10 11 12 13 14 15 16 17 18 19 20
000
FTUS45 KPIH 241336 AAB
TAFIDA
TAF AMD
KIDA 241336Z 2414/2512 VRB06KT 1/4SM FG OVC002
     FM241500 VRB06KT P6SM VCSH SCT020 SCT050
     FM241800 01007KT P6SM -SHRA VCTS OVC050CB
     FM250300 VRB06KT P6SM VCSH OVC070
     FM250700 VRB06KT 4SM BR SCT002 SCT070=

USA.gov is the U.S. government's official web portal to all federal, state and local government web resources and services.